Blue Ridge Observed Data For Previous 48 Hours

Caption
Day and Hour Reservoir Elevation (behind dam)* Tailwater Elevation (below dam)* Average Hourly Discharge*
6/24/2017 2 AM EDT 1,686.88 1,540.60 157
6/24/2017 3 AM EDT 1,686.93 1,540.60 156
6/24/2017 4 AM EDT 1,686.89 1,540.60 157
6/24/2017 5 AM EDT 1,686.97 1,540.59 156
6/24/2017 6 AM EDT 1,686.93 1,540.60 156
6/24/2017 7 AM EDT 1,686.99 1,540.60 157
6/24/2017 8 AM EDT 1,686.98 1,540.59 156
6/24/2017 9 AM EDT 1,686.99 1,540.60 157
6/24/2017 10 AM EDT 1,686.99 1,540.59 156
6/24/2017 11 AM EDT 1,686.99 1,540.60 157
6/24/2017 12 PM EDT 1,687.01 1,540.60 156
6/24/2017 1 PM EDT 1,687.01 1,540.56 157
6/24/2017 2 PM EDT 1,686.98 1,543.10 1,499
6/24/2017 3 PM EDT 1,686.96 1,543.19 1,569
6/24/2017 4 PM EDT 1,686.91 1,543.19 1,569
6/24/2017 5 PM EDT 1,686.91 1,543.20 1,570
6/24/2017 6 PM EDT 1,686.89 1,543.20 1,565
6/24/2017 7 PM EDT 1,686.86 1,543.19 1,568
6/24/2017 8 PM EDT 1,686.85 1,543.18 1,562
6/24/2017 9 PM EDT 1,686.84 1,543.18 1,563
6/24/2017 10 PM EDT 1,686.82 1,543.20 1,567
6/24/2017 11 PM EDT 1,686.83 1,540.68 244
6/25/2017 12 AM EDT 1,686.81 1,543.08 1,497
6/25/2017 1 AM EDT 1,686.79 1,543.18 1,560
6/25/2017 2 AM EDT 1,686.80 1,540.73 265
6/25/2017 3 AM EDT 1,686.81 1,540.60 158
6/25/2017 4 AM EDT 1,686.82 1,540.60 157
6/25/2017 5 AM EDT 1,686.83 1,540.60 158
6/25/2017 6 AM EDT 1,686.84 1,540.60 157
6/25/2017 7 AM EDT 1,686.83 1,540.60 158
6/25/2017 8 AM EDT 1,686.85 1,540.60 157
6/25/2017 9 AM EDT 1,686.84 1,540.60 158
6/25/2017 10 AM EDT 1,686.84 1,540.60 157
6/25/2017 11 AM EDT 1,686.85 1,540.80 315
6/25/2017 12 PM EDT 1,686.85 1,540.61 154
6/25/2017 1 PM EDT 1,686.85 1,540.83 282
6/25/2017 2 PM EDT 1,686.81 1,543.11 1,557
6/25/2017 3 PM EDT 1,686.80 1,543.18 1,557
6/25/2017 4 PM EDT 1,686.76 1,543.17 1,551
6/25/2017 5 PM EDT 1,686.73 1,543.16 1,553
6/25/2017 6 PM EDT 1,686.69 1,543.17 1,550
6/25/2017 7 PM EDT 1,686.67 1,543.15 1,552
6/25/2017 8 PM EDT 1,686.67 1,543.14 1,544
6/25/2017 9 PM EDT 1,686.64 1,543.15 1,548
6/25/2017 10 PM EDT 1,686.65 1,540.71 239
6/25/2017 11 PM EDT 1,686.67 1,540.60 154
6/26/2017 12 AM EDT 1,686.66 1,540.60 154
6/26/2017 1 AM EDT 1,686.69 1,540.60 154
6/26/2017 2 AM EDT 1,686.70 1,540.59 154
6/26/2017 3 AM EDT 1,686.71 1,540.59 154
6/26/2017 4 AM EDT 1,686.71 1,540.59 154
6/26/2017 5 AM EDT 1,686.70 1,540.59 154
6/26/2017 6 AM EDT 1,686.70 1,540.60 154
6/26/2017 7 AM EDT 1,686.71 1,540.59 154
6/26/2017 8 AM EDT 1,686.72 1,540.59 154
6/26/2017 9 AM EDT 1,686.75 1,540.59 154

Elevations are in feet above sea level. Discharges are in cubic feet per second and are reported at the end of the hour.